KFSK/FSK METAR and TAF weather

Enter ICAO airport designator
Station Type Date Time Source
KFSK METAR 2023/02/04 01:55 UTC NOAA

KFSK 040155Z AUTO 17006KT 10SM CLR 00/M10 A3037 RMK AO2 T10041103


Station Type Date Time Source
KFSK Decoded METAR 2023/02/04 01:55 UTC NOAA

Station name not available
Feb 03, 2023 - 08:55 PM EST / 2023.02.04 0155 UTC
Wind: from the S (170 degrees) at 7 MPH (6 KT):0
Visibility: 10 mile(s):0
Sky conditions: clear
Temperature: 31.3 F (-0.4 C)
Windchill: 24 F (-4 C):1
Dew Point: 13.5 F (-10.3 C)
Relative Humidity: 47%
Pressure (altimeter): 30.37 in. Hg (1028 hPa)
ob: KFSK 040155Z AUTO 17006KT 10SM CLR 00/M10 A3037 RMK AO2 T10041103
cycle: 2

Station Type Date Time Source
KFSK TAF UTC NOAA

Error!

Example: see airport list